sensor_id;sensor_type;location;lat;lon;timestamp;pressure;altitude;pressure_sealevel;temperature;humidity
54600;BME280;40500;51.084;16.958;2023-03-14T00:02:14;98563.05;;;9.75;100.00
54600;BME280;40500;51.084;16.958;2023-03-14T00:04:45;98555.45;;;9.65;100.00
54600;BME280;40500;51.084;16.958;2023-03-14T00:07:15;98545.46;;;9.57;100.00
54600;BME280;40500;51.084;16.958;2023-03-14T00:09:46;98551.91;;;9.54;100.00
54600;BME280;40500;51.084;16.958;2023-03-14T00:12:16;98556.96;;;9.54;100.00
54600;BME280;40500;51.084;16.958;2023-03-14T00:14:47;98562.40;;;9.57;100.00
54600;BME280;40500;51.084;16.958;2023-03-14T00:17:17;98562.31;;;9.55;100.00
54600;BME280;40500;51.084;16.958;2023-03-14T00:19:55;98563.82;;;9.48;100.00
54600;BME280;40500;51.084;16.958;2023-03-14T00:22:28;98557.98;;;9.45;100.00
54600;BME280;40500;51.084;16.958;2023-03-14T00:24:58;98554.42;;;9.43;100.00
54600;BME280;40500;51.084;16.958;2023-03-14T00:27:30;98547.15;;;9.41;100.00
54600;BME280;40500;51.084;16.958;2023-03-14T00:30:01;98540.33;;;9.42;100.00
54600;BME280;40500;51.084;16.958;2023-03-14T00:32:31;98539.32;;;9.45;100.00
54600;BME280;40500;51.084;16.958;2023-03-14T00:35:05;98541.84;;;9.47;100.00
54600;BME280;40500;51.084;16.958;2023-03-14T00:37:36;98539.29;;;9.50;100.00
54600;BME280;40500;51.084;16.958;2023-03-14T00:40:09;98531.33;;;9.52;100.00
54600;BME280;40500;51.084;16.958;2023-03-14T00:42:40;98534.30;;;9.56;100.00
54600;BME280;40500;51.084;16.958;2023-03-14T00:45:11;98530.44;;;9.61;100.00
54600;BME280;40500;51.084;16.958;2023-03-14T00:47:41;98530.30;;;9.65;100.00
54600;BME280;40500;51.084;16.958;2023-03-14T00:50:15;98540.75;;;9.69;100.00
54600;BME280;40500;51.084;16.958;2023-03-14T00:52:47;98555.20;;;9.79;100.00
54600;BME280;40500;51.084;16.958;2023-03-14T00:55:19;98591.48;;;9.94;100.00
54600;BME280;40500;51.084;16.958;2023-03-14T00:57:49;98627.84;;;10.06;100.00
54600;BME280;40500;51.084;16.958;2023-03-14T01:00:20;98612.98;;;10.10;100.00
54600;BME280;40500;51.084;16.958;2023-03-14T01:02:50;98601.27;;;10.10;100.00
54600;BME280;40500;51.084;16.958;2023-03-14T01:05:22;98595.36;;;10.09;100.00
54600;BME280;40500;51.084;16.958;2023-03-14T01:07:53;98588.80;;;10.11;100.00
54600;BME280;40500;51.084;16.958;2023-03-14T01:10:23;98570.05;;;10.12;100.00
54600;BME280;40500;51.084;16.958;2023-03-14T01:12:54;98553.44;;;10.12;100.00
54600;BME280;40500;51.084;16.958;2023-03-14T01:15:25;98561.70;;;10.10;100.00
54600;BME280;40500;51.084;16.958;2023-03-14T01:17:55;98565.63;;;10.13;100.00
54600;BME280;40500;51.084;16.958;2023-03-14T01:20:25;98566.70;;;10.16;100.00
54600;BME280;40500;51.084;16.958;2023-03-14T01:22:56;98564.13;;;10.20;100.00
54600;BME280;40500;51.084;16.958;2023-03-14T01:25:29;98573.98;;;10.22;100.00
54600;BME280;40500;51.084;16.958;2023-03-14T01:27:59;98568.97;;;10.25;100.00
54600;BME280;40500;51.084;16.958;2023-03-14T01:30:30;98562.77;;;10.26;100.00
54600;BME280;40500;51.084;16.958;2023-03-14T01:33:02;98548.75;;;10.27;100.00
54600;BME280;40500;51.084;16.958;2023-03-14T01:35:32;98533.09;;;10.25;100.00
54600;BME280;40500;51.084;16.958;2023-03-14T01:38:03;98528.67;;;10.22;100.00
54600;BME280;40500;51.084;16.958;2023-03-14T01:40:33;98520.73;;;10.20;100.00
54600;BME280;40500;51.084;16.958;2023-03-14T01:43:15;98511.11;;;10.20;100.00
54600;BME280;40500;51.084;16.958;2023-03-14T01:46:19;98496.05;;;10.20;100.00
54600;BME280;40500;51.084;16.958;2023-03-14T01:48:55;98479.20;;;10.21;100.00
54600;BME280;40500;51.084;16.958;2023-03-14T01:51:36;98481.02;;;10.20;100.00
54600;BME280;40500;51.084;16.958;2023-03-14T01:54:13;98472.33;;;10.15;100.00
54600;BME280;40500;51.084;16.958;2023-03-14T01:56:48;98476.92;;;10.10;100.00
54600;BME280;40500;51.084;16.958;2023-03-14T01:59:20;98485.37;;;10.05;100.00
54600;BME280;40500;51.084;16.958;2023-03-14T02:01:52;98470.46;;;10.02;100.00
54600;BME280;40500;51.084;16.958;2023-03-14T02:04:26;98454.85;;;9.99;100.00
54600;BME280;40500;51.084;16.958;2023-03-14T02:07:03;98430.55;;;9.95;100.00
54600;BME280;40500;51.084;16.958;2023-03-14T02:09:40;98417.27;;;9.91;100.00
54600;BME280;40500;51.084;16.958;2023-03-14T02:12:19;98412.12;;;9.88;100.00
54600;BME280;40500;51.084;16.958;2023-03-14T02:15:11;98401.42;;;9.86;100.00
54600;BME280;40500;51.084;16.958;2023-03-14T02:17:55;98403.78;;;9.84;100.00
54600;BME280;40500;51.084;16.958;2023-03-14T02:20:55;98408.72;;;9.83;100.00
54600;BME280;40500;51.084;16.958;2023-03-14T02:23:36;98406.14;;;9.82;100.00
54600;BME280;40500;51.084;16.958;2023-03-14T02:26:14;98393.99;;;9.84;100.00
54600;BME280;40500;51.084;16.958;2023-03-14T02:28:48;98376.52;;;9.83;100.00
54600;BME280;40500;51.084;16.958;2023-03-14T02:31:19;98371.48;;;9.83;100.00
54600;BME280;40500;51.084;16.958;2023-03-14T02:33:52;98373.13;;;9.81;100.00
54600;BME280;40500;51.084;16.958;2023-03-14T02:36:26;98363.58;;;9.80;100.00
54600;BME280;40500;51.084;16.958;2023-03-14T02:39:03;98361.23;;;9.78;100.00
54600;BME280;40500;51.084;16.958;2023-03-14T02:41:41;98356.84;;;9.75;100.00
54600;BME280;40500;51.084;16.958;2023-03-14T02:44:14;98355.58;;;9.71;100.00
54600;BME280;40500;51.084;16.958;2023-03-14T02:46:46;98361.13;;;9.69;100.00
54600;BME280;40500;51.084;16.958;2023-03-14T02:49:17;98363.45;;;9.67;100.00
54600;BME280;40500;51.084;16.958;2023-03-14T02:51:50;98356.27;;;9.68;100.00
54600;BME280;40500;51.084;16.958;2023-03-14T02:54:21;98355.45;;;9.66;100.00
54600;BME280;40500;51.084;16.958;2023-03-14T02:56:52;98349.48;;;9.67;100.00
54600;BME280;40500;51.084;16.958;2023-03-14T02:59:31;98327.98;;;9.67;100.00
54600;BME280;40500;51.084;16.958;2023-03-14T03:02:08;98303.23;;;9.70;100.00
54600;BME280;40500;51.084;16.958;2023-03-14T03:04:40;98298.61;;;9.75;100.00
54600;BME280;40500;51.084;16.958;2023-03-14T03:07:11;98296.09;;;9.80;100.00
54600;BME280;40500;51.084;16.958;2023-03-14T03:09:41;98289.52;;;9.86;100.00
54600;BME280;40500;51.084;16.958;2023-03-14T03:12:12;98292.90;;;9.89;100.00
54600;BME280;40500;51.084;16.958;2023-03-14T03:14:42;98309.10;;;9.90;100.00
54600;BME280;40500;51.084;16.958;2023-03-14T03:17:13;98309.63;;;9.90;100.00
54600;BME280;40500;51.084;16.958;2023-03-14T03:19:44;98302.11;;;9.90;100.00
54600;BME280;40500;51.084;16.958;2023-03-14T03:22:15;98293.91;;;9.90;100.00
54600;BME280;40500;51.084;16.958;2023-03-14T03:24:45;98299.74;;;9.88;100.00
54600;BME280;40500;51.084;16.958;2023-03-14T03:27:15;98298.91;;;9.87;100.00
54600;BME280;40500;51.084;16.958;2023-03-14T03:29:46;98299.72;;;9.85;100.00
54600;BME280;40500;51.084;16.958;2023-03-14T03:32:18;98307.46;;;9.84;100.00
54600;BME280;40500;51.084;16.958;2023-03-14T03:34:48;98315.79;;;9.81;100.00
54600;BME280;40500;51.084;16.958;2023-03-14T03:37:19;98300.60;;;9.81;100.00
54600;BME280;40500;51.084;16.958;2023-03-14T03:39:51;98297.15;;;9.80;100.00
54600;BME280;40500;51.084;16.958;2023-03-14T03:42:21;98298.05;;;9.79;100.00
54600;BME280;40500;51.084;16.958;2023-03-14T03:44:52;98285.98;;;9.80;100.00
54600;BME280;40500;51.084;16.958;2023-03-14T03:47:23;98279.80;;;9.81;100.00
54600;BME280;40500;51.084;16.958;2023-03-14T03:49:53;98275.91;;;9.82;100.00
54600;BME280;40500;51.084;16.958;2023-03-14T03:52:24;98268.49;;;9.84;100.00
54600;BME280;40500;51.084;16.958;2023-03-14T03:54:54;98269.38;;;9.83;100.00
54600;BME280;40500;51.084;16.958;2023-03-14T03:57:25;98264.57;;;9.85;100.00
54600;BME280;40500;51.084;16.958;2023-03-14T03:59:55;98251.44;;;9.86;100.00
54600;BME280;40500;51.084;16.958;2023-03-14T04:02:26;98253.38;;;9.85;100.00
54600;BME280;40500;51.084;16.958;2023-03-14T04:04:57;98252.81;;;9.86;100.00
54600;BME280;40500;51.084;16.958;2023-03-14T04:07:30;98258.23;;;9.86;100.00
54600;BME280;40500;51.084;16.958;2023-03-14T04:10:02;98256.50;;;9.86;100.00
54600;BME280;40500;51.084;16.958;2023-03-14T04:12:37;98243.39;;;9.86;100.00
54600;BME280;40500;51.084;16.958;2023-03-14T04:15:16;98238.66;;;9.86;100.00
54600;BME280;40500;51.084;16.958;2023-03-14T04:17:50;98228.41;;;9.88;100.00
54600;BME280;40500;51.084;16.958;2023-03-14T04:20:21;98234.09;;;9.94;100.00
54600;BME280;40500;51.084;16.958;2023-03-14T04:22:51;98232.96;;;10.00;100.00
54600;BME280;40500;51.084;16.958;2023-03-14T04:25:23;98205.69;;;10.03;100.00
54600;BME280;40500;51.084;16.958;2023-03-14T04:27:57;98196.84;;;10.05;100.00
54600;BME280;40500;51.084;16.958;2023-03-14T04:30:30;98178.88;;;10.07;100.00
54600;BME280;40500;51.084;16.958;2023-03-14T04:33:07;98189.49;;;10.09;100.00
54600;BME280;40500;51.084;16.958;2023-03-14T04:35:43;98199.70;;;10.15;100.00
54600;BME280;40500;51.084;16.958;2023-03-14T04:38:16;98213.69;;;10.18;100.00
54600;BME280;40500;51.084;16.958;2023-03-14T04:40:47;98204.89;;;10.19;100.00
54600;BME280;40500;51.084;16.958;2023-03-14T04:43:19;98205.36;;;10.20;100.00
54600;BME280;40500;51.084;16.958;2023-03-14T04:45:56;98205.37;;;10.20;100.00
54600;BME280;40500;51.084;16.958;2023-03-14T04:48:27;98207.93;;;10.18;100.00
54600;BME280;40500;51.084;16.958;2023-03-14T04:50:59;98208.53;;;10.16;100.00
54600;BME280;40500;51.084;16.958;2023-03-14T04:53:33;98210.66;;;10.15;100.00
54600;BME280;40500;51.084;16.958;2023-03-14T04:56:09;98219.89;;;10.13;100.00
54600;BME280;40500;51.084;16.958;2023-03-14T04:58:43;98226.98;;;10.11;100.00
54600;BME280;40500;51.084;16.958;2023-03-14T05:01:18;98214.11;;;10.09;100.00
54600;BME280;40500;51.084;16.958;2023-03-14T05:04:07;98213.88;;;10.10;100.00
54600;BME280;40500;51.084;16.958;2023-03-14T05:07:12;98206.15;;;10.07;100.00
54600;BME280;40500;51.084;16.958;2023-03-14T05:10:15;98194.67;;;10.03;100.00
54600;BME280;40500;51.084;16.958;2023-03-14T05:13:06;98185.90;;;10.00;100.00
54600;BME280;40500;51.084;16.958;2023-03-14T05:16:09;98169.65;;;9.96;100.00
54600;BME280;40500;51.084;16.958;2023-03-14T05:18:52;98166.71;;;9.95;100.00
54600;BME280;40500;51.084;16.958;2023-03-14T05:21:39;98158.02;;;9.94;100.00
54600;BME280;40500;51.084;16.958;2023-03-14T05:24:29;98157.50;;;9.90;100.00
54600;BME280;40500;51.084;16.958;2023-03-14T05:27:02;98161.69;;;9.87;100.00
54600;BME280;40500;51.084;16.958;2023-03-14T05:29:51;98157.48;;;9.84;100.00
54600;BME280;40500;51.084;16.958;2023-03-14T05:32:36;98165.30;;;9.81;100.00
54600;BME280;40500;51.084;16.958;2023-03-14T05:35:31;98169.84;;;9.78;100.00
54600;BME280;40500;51.084;16.958;2023-03-14T05:38:20;98174.80;;;9.76;100.00
54600;BME280;40500;51.084;16.958;2023-03-14T05:41:17;98187.20;;;9.73;100.00
54600;BME280;40500;51.084;16.958;2023-03-14T05:44:05;98203.79;;;9.69;100.00
54600;BME280;40500;51.084;16.958;2023-03-14T05:46:43;98209.49;;;9.67;100.00
54600;BME280;40500;51.084;16.958;2023-03-14T05:49:34;98206.48;;;9.64;100.00
54600;BME280;40500;51.084;16.958;2023-03-14T05:52:15;98211.83;;;9.62;100.00
54600;BME280;40500;51.084;16.958;2023-03-14T05:55:10;98203.54;;;9.60;100.00
54600;BME280;40500;51.084;16.958;2023-03-14T05:58:02;98192.01;;;9.60;100.00
54600;BME280;40500;51.084;16.958;2023-03-14T06:01:07;98189.14;;;9.62;100.00
54600;BME280;40500;51.084;16.958;2023-03-14T06:03:46;98186.16;;;9.65;100.00
54600;BME280;40500;51.084;16.958;2023-03-14T06:06:16;98194.64;;;9.67;100.00
54600;BME280;40500;51.084;16.958;2023-03-14T06:08:47;98201.56;;;9.69;100.00
54600;BME280;40500;51.084;16.958;2023-03-14T06:11:19;98206.00;;;9.71;100.00
54600;BME280;40500;51.084;16.958;2023-03-14T06:13:50;98205.88;;;9.74;100.00
54600;BME280;40500;51.084;16.958;2023-03-14T06:16:20;98193.00;;;9.76;100.00
54600;BME280;40500;51.084;16.958;2023-03-14T06:18:54;98190.92;;;9.79;100.00
54600;BME280;40500;51.084;16.958;2023-03-14T06:21:25;98210.18;;;9.82;100.00
54600;BME280;40500;51.084;16.958;2023-03-14T06:23:56;98220.00;;;9.85;100.00
54600;BME280;40500;51.084;16.958;2023-03-14T06:26:30;98214.60;;;9.88;100.00
54600;BME280;40500;51.084;16.958;2023-03-14T06:29:01;98223.39;;;9.91;100.00
54600;BME280;40500;51.084;16.958;2023-03-14T06:31:34;98244.02;;;9.95;100.00
54600;BME280;40500;51.084;16.958;2023-03-14T06:34:08;98246.34;;;9.98;100.00
54600;BME280;40500;51.084;16.958;2023-03-14T06:36:42;98243.42;;;10.00;100.00
54600;BME280;40500;51.084;16.958;2023-03-14T06:39:15;98245.22;;;10.02;100.00
54600;BME280;40500;51.084;16.958;2023-03-14T06:41:47;98239.05;;;10.04;100.00
54600;BME280;40500;51.084;16.958;2023-03-14T06:44:20;98239.02;;;10.04;100.00
54600;BME280;40500;51.084;16.958;2023-03-14T06:46:52;98231.25;;;10.06;100.00
54600;BME280;40500;51.084;16.958;2023-03-14T06:49:23;98233.32;;;10.06;100.00
54600;BME280;40500;51.084;16.958;2023-03-14T06:51:55;98232.89;;;10.08;100.00
54600;BME280;40500;51.084;16.958;2023-03-14T06:54:26;98239.91;;;10.11;100.00
54600;BME280;40500;51.084;16.958;2023-03-14T06:56:56;98248.23;;;10.12;100.00
54600;BME280;40500;51.084;16.958;2023-03-14T06:59:27;98253.63;;;10.13;100.00
54600;BME280;40500;51.084;16.958;2023-03-14T07:02:00;98247.23;;;10.15;100.00
54600;BME280;40500;51.084;16.958;2023-03-14T07:04:31;98247.36;;;10.16;100.00
54600;BME280;40500;51.084;16.958;2023-03-14T07:07:01;98243.98;;;10.17;100.00
54600;BME280;40500;51.084;16.958;2023-03-14T07:09:35;98248.59;;;10.16;100.00
54600;BME280;40500;51.084;16.958;2023-03-14T07:12:06;98247.73;;;10.16;100.00
54600;BME280;40500;51.084;16.958;2023-03-14T07:14:37;98244.30;;;10.14;100.00
54600;BME280;40500;51.084;16.958;2023-03-14T07:17:08;98251.84;;;10.17;100.00
54600;BME280;40500;51.084;16.958;2023-03-14T07:19:38;98258.52;;;10.20;100.00
54600;BME280;40500;51.084;16.958;2023-03-14T07:22:09;98267.48;;;10.23;100.00
54600;BME280;40500;51.084;16.958;2023-03-14T07:24:40;98270.36;;;10.25;100.00
54600;BME280;40500;51.084;16.958;2023-03-14T07:27:12;98269.27;;;10.25;100.00
54600;BME280;40500;51.084;16.958;2023-03-14T07:29:42;98264.73;;;10.26;100.00
54600;BME280;40500;51.084;16.958;2023-03-14T07:32:13;98248.77;;;10.26;100.00
54600;BME280;40500;51.084;16.958;2023-03-14T07:34:45;98240.36;;;10.26;100.00
54600;BME280;40500;51.084;16.958;2023-03-14T07:37:16;98241.20;;;10.27;100.00
54600;BME280;40500;51.084;16.958;2023-03-14T07:39:46;98249.11;;;10.27;100.00
54600;BME280;40500;51.084;16.958;2023-03-14T07:42:22;98247.00;;;10.27;100.00
54600;BME280;40500;51.084;16.958;2023-03-14T07:45:12;98232.48;;;10.26;100.00
54600;BME280;40500;51.084;16.958;2023-03-14T07:47:42;98221.48;;;10.26;100.00
54600;BME280;40500;51.084;16.958;2023-03-14T07:50:13;98219.61;;;10.25;100.00
54600;BME280;40500;51.084;16.958;2023-03-14T07:52:43;98212.89;;;10.23;100.00
54600;BME280;40500;51.084;16.958;2023-03-14T07:55:14;98219.39;;;10.23;100.00
54600;BME280;40500;51.084;16.958;2023-03-14T07:57:46;98236.23;;;10.22;100.00
54600;BME280;40500;51.084;16.958;2023-03-14T08:00:18;98247.70;;;10.20;100.00
54600;BME280;40500;51.084;16.958;2023-03-14T08:02:48;98243.71;;;10.19;100.00
54600;BME280;40500;51.084;16.958;2023-03-14T08:05:19;98239.54;;;10.19;100.00
54600;BME280;40500;51.084;16.958;2023-03-14T08:07:50;98236.27;;;10.17;100.00
54600;BME280;40500;51.084;16.958;2023-03-14T08:10:20;98232.07;;;10.14;100.00
54600;BME280;40500;51.084;16.958;2023-03-14T08:12:52;98245.63;;;10.12;100.00
54600;BME280;40500;51.084;16.958;2023-03-14T08:15:26;98247.66;;;10.10;100.00
54600;BME280;40500;51.084;16.958;2023-03-14T08:17:57;98242.80;;;10.09;100.00
54600;BME280;40500;51.084;16.958;2023-03-14T08:20:28;98243.21;;;10.08;100.00
54600;BME280;40500;51.084;16.958;2023-03-14T08:23:00;98246.92;;;10.07;100.00
54600;BME280;40500;51.084;16.958;2023-03-14T08:25:31;98249.75;;;10.06;100.00
54600;BME280;40500;51.084;16.958;2023-03-14T08:28:04;98260.74;;;10.07;100.00
54600;BME280;40500;51.084;16.958;2023-03-14T08:30:35;98270.11;;;10.08;100.00
54600;BME280;40500;51.084;16.958;2023-03-14T08:33:06;98273.02;;;10.10;100.00
54600;BME280;40500;51.084;16.958;2023-03-14T08:35:38;98276.90;;;10.09;100.00
54600;BME280;40500;51.084;16.958;2023-03-14T08:38:08;98278.13;;;10.09;100.00
54600;BME280;40500;51.084;16.958;2023-03-14T08:40:39;98276.35;;;10.10;100.00
54600;BME280;40500;51.084;16.958;2023-03-14T08:43:09;98290.05;;;10.12;100.00
54600;BME280;40500;51.084;16.958;2023-03-14T08:45:41;98296.11;;;10.17;100.00
54600;BME280;40500;51.084;16.958;2023-03-14T08:48:11;98289.09;;;10.21;100.00
54600;BME280;40500;51.084;16.958;2023-03-14T08:50:42;98293.34;;;10.27;100.00
54600;BME280;40500;51.084;16.958;2023-03-14T08:53:12;98299.29;;;10.36;100.00
54600;BME280;40500;51.084;16.958;2023-03-14T08:55:43;98296.19;;;10.45;100.00
54600;BME280;40500;51.084;16.958;2023-03-14T08:58:15;98298.53;;;10.54;100.00
54600;BME280;40500;51.084;16.958;2023-03-14T09:00:45;98292.87;;;10.59;100.00
54600;BME280;40500;51.084;16.958;2023-03-14T09:03:16;98288.44;;;10.64;100.00
54600;BME280;40500;51.084;16.958;2023-03-14T09:05:46;98286.86;;;10.67;100.00
54600;BME280;40500;51.084;16.958;2023-03-14T09:08:17;98286.84;;;10.67;100.00
54600;BME280;40500;51.084;16.958;2023-03-14T09:10:47;98291.39;;;10.67;100.00
54600;BME280;40500;51.084;16.958;2023-03-14T09:13:18;98286.16;;;10.67;100.00
54600;BME280;40500;51.084;16.958;2023-03-14T09:15:53;98278.16;;;10.66;100.00
54600;BME280;40500;51.084;16.958;2023-03-14T09:18:31;98282.77;;;10.65;100.00
54600;BME280;40500;51.084;16.958;2023-03-14T09:21:02;98289.77;;;10.65;100.00
54600;BME280;40500;51.084;16.958;2023-03-14T09:23:35;98284.42;;;10.67;100.00
54600;BME280;40500;51.084;16.958;2023-03-14T09:26:07;98280.40;;;10.71;100.00
54600;BME280;40500;51.084;16.958;2023-03-14T09:28:39;98288.29;;;10.74;100.00
54600;BME280;40500;51.084;16.958;2023-03-14T09:31:12;98300.98;;;10.73;100.00
54600;BME280;40500;51.084;16.958;2023-03-14T09:33:43;98303.40;;;10.69;100.00
54600;BME280;40500;51.084;16.958;2023-03-14T09:36:14;98311.54;;;10.67;100.00
54600;BME280;40500;51.084;16.958;2023-03-14T09:38:45;98315.11;;;10.66;100.00
54600;BME280;40500;51.084;16.958;2023-03-14T09:41:18;98328.39;;;10.66;100.00
54600;BME280;40500;51.084;16.958;2023-03-14T09:43:57;98334.95;;;10.65;100.00
54600;BME280;40500;51.084;16.958;2023-03-14T09:46:33;98341.69;;;10.63;100.00
54600;BME280;40500;51.084;16.958;2023-03-14T09:49:11;98341.41;;;10.61;100.00
54600;BME280;40500;51.084;16.958;2023-03-14T09:51:49;98340.40;;;10.61;100.00
54600;BME280;40500;51.084;16.958;2023-03-14T09:54:29;98346.33;;;10.61;100.00
54600;BME280;40500;51.084;16.958;2023-03-14T09:57:00;98349.06;;;10.62;100.00
54600;BME280;40500;51.084;16.958;2023-03-14T09:59:37;98348.27;;;10.64;100.00
54600;BME280;40500;51.084;16.958;2023-03-14T10:02:16;98345.50;;;10.71;100.00
54600;BME280;40500;51.084;16.958;2023-03-14T10:04:50;98344.77;;;10.79;100.00
54600;BME280;40500;51.084;16.958;2023-03-14T10:07:25;98344.72;;;10.83;100.00
54600;BME280;40500;51.084;16.958;2023-03-14T10:09:58;98347.98;;;10.88;100.00
54600;BME280;40500;51.084;16.958;2023-03-14T10:12:36;98340.88;;;10.90;100.00
54600;BME280;40500;51.084;16.958;2023-03-14T10:15:11;98342.77;;;10.94;100.00
54600;BME280;40500;51.084;16.958;2023-03-14T10:17:46;98335.86;;;10.99;100.00
54600;BME280;40500;51.084;16.958;2023-03-14T10:20:30;98335.46;;;11.07;100.00
54600;BME280;40500;51.084;16.958;2023-03-14T10:23:04;98336.66;;;11.18;100.00
54600;BME280;40500;51.084;16.958;2023-03-14T10:25:38;98333.92;;;11.27;100.00
54600;BME280;40500;51.084;16.958;2023-03-14T10:28:24;98327.56;;;11.35;100.00
54600;BME280;40500;51.084;16.958;2023-03-14T10:30:56;98325.55;;;11.46;100.00
54600;BME280;40500;51.084;16.958;2023-03-14T10:33:28;98326.81;;;11.59;100.00
54600;BME280;40500;51.084;16.958;2023-03-14T10:36:00;98329.45;;;11.68;100.00
54600;BME280;40500;51.084;16.958;2023-03-14T10:38:33;98322.06;;;11.79;100.00
54600;BME280;40500;51.084;16.958;2023-03-14T10:41:14;98318.42;;;11.87;100.00
54600;BME280;40500;51.084;16.958;2023-03-14T10:43:46;98313.24;;;11.96;100.00
54600;BME280;40500;51.084;16.958;2023-03-14T10:46:20;98314.20;;;12.04;100.00
54600;BME280;40500;51.084;16.958;2023-03-14T10:49:26;98305.35;;;12.15;100.00
54600;BME280;40500;51.084;16.958;2023-03-14T10:52:03;98299.52;;;12.22;100.00
54600;BME280;40500;51.084;16.958;2023-03-14T10:54:48;98300.32;;;12.27;100.00
54600;BME280;40500;51.084;16.958;2023-03-14T10:57:20;98301.36;;;12.33;100.00
54600;BME280;40500;51.084;16.958;2023-03-14T10:59:52;98304.23;;;12.39;100.00
54600;BME280;40500;51.084;16.958;2023-03-14T11:02:37;98305.23;;;12.45;100.00
54600;BME280;40500;51.084;16.958;2023-03-14T11:05:21;98304.68;;;12.52;100.00
54600;BME280;40500;51.084;16.958;2023-03-14T11:07:54;98300.20;;;12.59;100.00
54600;BME280;40500;51.084;16.958;2023-03-14T11:10:32;98298.10;;;12.65;100.00
54600;BME280;40500;51.084;16.958;2023-03-14T11:13:14;98295.21;;;12.70;100.00
54600;BME280;40500;51.084;16.958;2023-03-14T11:15:53;98290.12;;;12.76;100.00
54600;BME280;40500;51.084;16.958;2023-03-14T11:18:41;98285.77;;;12.87;100.00
54600;BME280;40500;51.084;16.958;2023-03-14T11:21:20;98272.95;;;13.01;100.00
54600;BME280;40500;51.084;16.958;2023-03-14T11:24:02;98269.67;;;13.13;100.00
54600;BME280;40500;51.084;16.958;2023-03-14T11:26:40;98262.91;;;13.22;100.00
54600;BME280;40500;51.084;16.958;2023-03-14T11:29:15;98267.34;;;13.25;100.00
54600;BME280;40500;51.084;16.958;2023-03-14T11:31:50;98263.56;;;13.26;100.00
54600;BME280;40500;51.084;16.958;2023-03-14T11:34:28;98252.44;;;13.24;100.00
54600;BME280;40500;51.084;16.958;2023-03-14T11:37:01;98248.38;;;13.22;100.00
54600;BME280;40500;51.084;16.958;2023-03-14T11:39:39;98252.14;;;13.24;100.00
54600;BME280;40500;51.084;16.958;2023-03-14T11:42:14;98257.52;;;13.22;100.00
54600;BME280;40500;51.084;16.958;2023-03-14T11:44:47;98258.41;;;13.18;100.00
54600;BME280;40500;51.084;16.958;2023-03-14T11:47:22;98257.60;;;13.18;100.00
54600;BME280;40500;51.084;16.958;2023-03-14T11:50:04;98248.14;;;13.17;100.00
54600;BME280;40500;51.084;16.958;2023-03-14T11:52:46;98252.35;;;13.17;100.00
54600;BME280;40500;51.084;16.958;2023-03-14T11:55:27;98246.89;;;13.20;100.00
54600;BME280;40500;51.084;16.958;2023-03-14T11:58:03;98254.02;;;13.27;100.00
54600;BME280;40500;51.084;16.958;2023-03-14T12:00:42;98252.59;;;13.34;100.00
54600;BME280;40500;51.084;16.958;2023-03-14T12:03:19;98251.69;;;13.40;100.00
54600;BME280;40500;51.084;16.958;2023-03-14T12:06:03;98246.48;;;13.44;100.00
54600;BME280;40500;51.084;16.958;2023-03-14T12:08:48;98241.89;;;13.44;100.00
54600;BME280;40500;51.084;16.958;2023-03-14T12:11:31;98241.97;;;13.50;100.00
54600;BME280;40500;51.084;16.958;2023-03-14T12:14:18;98241.83;;;13.54;100.00
54600;BME280;40500;51.084;16.958;2023-03-14T12:17:17;98249.60;;;13.59;100.00
54600;BME280;40500;51.084;16.958;2023-03-14T12:20:05;98245.77;;;13.59;100.00
54600;BME280;40500;51.084;16.958;2023-03-14T12:22:43;98240.66;;;13.56;100.00
54600;BME280;40500;51.084;16.958;2023-03-14T12:25:19;98242.98;;;13.53;100.00
54600;BME280;40500;51.084;16.958;2023-03-14T12:31:37;98243.55;;;13.40;100.00
54600;BME280;40500;51.084;16.958;2023-03-14T12:34:31;98240.02;;;13.38;100.00
54600;BME280;40500;51.084;16.958;2023-03-14T12:40:15;98227.44;;;13.45;100.00
54600;BME280;40500;51.084;16.958;2023-03-14T12:42:57;98231.73;;;13.44;100.00
54600;BME280;40500;51.084;16.958;2023-03-14T12:48:26;98232.89;;;13.39;100.00
54600;BME280;40500;51.084;16.958;2023-03-14T12:51:05;98234.80;;;13.34;100.00
54600;BME280;40500;51.084;16.958;2023-03-14T12:56:52;98228.48;;;13.28;100.00
54600;BME280;40500;51.084;16.958;2023-03-14T12:59:32;98230.41;;;13.25;100.00
54600;BME280;40500;51.084;16.958;2023-03-14T13:02:23;98229.90;;;13.22;100.00
54600;BME280;40500;51.084;16.958;2023-03-14T13:05:14;98221.96;;;13.17;100.00
54600;BME280;40500;51.084;16.958;2023-03-14T13:08:06;98230.29;;;13.16;100.00
54600;BME280;40500;51.084;16.958;2023-03-14T13:10:48;98231.21;;;13.10;100.00
54600;BME280;40500;51.084;16.958;2023-03-14T13:13:27;98225.75;;;13.07;100.00
54600;BME280;40500;51.084;16.958;2023-03-14T13:16:03;98221.86;;;13.01;100.00
54600;BME280;40500;51.084;16.958;2023-03-14T13:18:39;98217.11;;;12.96;100.00
54600;BME280;40500;51.084;16.958;2023-03-14T13:21:13;98216.40;;;12.95;100.00
54600;BME280;40500;51.084;16.958;2023-03-14T13:23:58;98215.98;;;12.97;100.00
54600;BME280;40500;51.084;16.958;2023-03-14T13:26:39;98211.36;;;13.00;100.00
54600;BME280;40500;51.084;16.958;2023-03-14T13:29:17;98213.95;;;13.04;100.00
54600;BME280;40500;51.084;16.958;2023-03-14T13:31:51;98215.79;;;13.12;100.00
54600;BME280;40500;51.084;16.958;2023-03-14T13:34:24;98216.54;;;13.14;100.00
54600;BME280;40500;51.084;16.958;2023-03-14T13:36:55;98212.15;;;13.11;100.00
54600;BME280;40500;51.084;16.958;2023-03-14T13:39:28;98211.92;;;13.06;100.00